sensor_id;sensor_type;location;lat;lon;timestamp;pressure;altitude;pressure_sealevel;temperature;humidity
63493;BME280;49638;47.526;10.028;2023-01-29T00:00:51;92254.56;;;-4.47;85.71
63493;BME280;49638;47.526;10.028;2023-01-29T00:03:52;92244.78;;;-4.54;85.23
63493;BME280;49638;47.526;10.028;2023-01-29T00:06:52;92233.94;;;-4.57;85.58
63493;BME280;49638;47.526;10.028;2023-01-29T00:09:52;92235.28;;;-4.53;85.33
63493;BME280;49638;47.526;10.028;2023-01-29T00:12:52;92244.94;;;-4.55;85.18
63493;BME280;49638;47.526;10.028;2023-01-29T00:15:54;92239.72;;;-4.45;85.03
63493;BME280;49638;47.526;10.028;2023-01-29T00:18:55;92251.44;;;-4.51;84.37
63493;BME280;49638;47.526;10.028;2023-01-29T00:21:55;92233.16;;;-4.67;84.66
63493;BME280;49638;47.526;10.028;2023-01-29T00:24:56;92228.91;;;-4.59;85.36
63493;BME280;49638;47.526;10.028;2023-01-29T00:27:56;92224.00;;;-4.52;84.67
63493;BME280;49638;47.526;10.028;2023-01-29T00:30:56;92234.56;;;-4.45;84.70
63493;BME280;49638;47.526;10.028;2023-01-29T00:33:57;92219.69;;;-4.52;84.24
63493;BME280;49638;47.526;10.028;2023-01-29T00:36:57;92228.50;;;-4.54;84.68
63493;BME280;49638;47.526;10.028;2023-01-29T00:40:04;92239.06;;;-4.47;85.48
63493;BME280;49638;47.526;10.028;2023-01-29T00:43:04;92229.84;;;-4.50;85.79
63493;BME280;49638;47.526;10.028;2023-01-29T00:46:23;92245.13;;;-4.39;85.41
63493;BME280;49638;47.526;10.028;2023-01-29T00:49:23;92257.91;;;-4.37;85.37
63493;BME280;49638;47.526;10.028;2023-01-29T00:52:24;92238.38;;;-4.40;85.50
63493;BME280;49638;47.526;10.028;2023-01-29T00:55:25;92256.25;;;-4.29;85.48
63493;BME280;49638;47.526;10.028;2023-01-29T00:58:25;92248.69;;;-4.40;85.51
63493;BME280;49638;47.526;10.028;2023-01-29T01:01:27;92249.66;;;-4.41;85.31
63493;BME280;49638;47.526;10.028;2023-01-29T01:04:46;92260.22;;;-4.34;85.62
63493;BME280;49638;47.526;10.028;2023-01-29T01:07:48;92268.06;;;-4.26;85.57
63493;BME280;49638;47.526;10.028;2023-01-29T01:11:03;92263.69;;;-4.25;85.70
63493;BME280;49638;47.526;10.028;2023-01-29T01:14:04;92240.78;;;-4.38;85.22
63493;BME280;49638;47.526;10.028;2023-01-29T01:17:04;92269.94;;;-4.28;85.62
63493;BME280;49638;47.526;10.028;2023-01-29T01:20:05;92255.47;;;-4.39;85.73
63493;BME280;49638;47.526;10.028;2023-01-29T01:23:05;92259.09;;;-4.32;85.76
63493;BME280;49638;47.526;10.028;2023-01-29T01:26:08;92270.19;;;-4.21;85.49
63493;BME280;49638;47.526;10.028;2023-01-29T01:29:08;92275.34;;;-4.21;84.68
63493;BME280;49638;47.526;10.028;2023-01-29T01:32:08;92279.75;;;-4.32;83.66
63493;BME280;49638;47.526;10.028;2023-01-29T01:35:10;92278.03;;;-4.41;83.48
63493;BME280;49638;47.526;10.028;2023-01-29T01:38:10;92281.34;;;-4.58;83.84
63493;BME280;49638;47.526;10.028;2023-01-29T01:41:11;92290.94;;;-4.41;84.72
63493;BME280;49638;47.526;10.028;2023-01-29T01:47:53;92296.91;;;-4.50;83.86
63493;BME280;49638;47.526;10.028;2023-01-29T01:50:57;92292.44;;;-4.48;85.03
63493;BME280;49638;47.526;10.028;2023-01-29T01:54:04;92287.81;;;-4.44;84.81
63493;BME280;49638;47.526;10.028;2023-01-29T01:57:08;92276.56;;;-4.53;83.69
63493;BME280;49638;47.526;10.028;2023-01-29T02:00:17;92288.19;;;-4.39;84.59
63493;BME280;49638;47.526;10.028;2023-01-29T02:03:20;92288.06;;;-4.38;85.06
63493;BME280;49638;47.526;10.028;2023-01-29T02:06:40;92281.41;;;-4.40;85.46
63493;BME280;49638;47.526;10.028;2023-01-29T02:10:07;92295.06;;;-4.20;85.29
63493;BME280;49638;47.526;10.028;2023-01-29T02:13:08;92293.31;;;-4.20;84.39
63493;BME280;49638;47.526;10.028;2023-01-29T02:16:09;92288.84;;;-4.28;85.03
63493;BME280;49638;47.526;10.028;2023-01-29T02:19:18;92295.88;;;-4.20;84.94
63493;BME280;49638;47.526;10.028;2023-01-29T02:29:32;92286.38;;;-4.19;84.07
63493;BME280;49638;47.526;10.028;2023-01-29T02:32:41;92288.41;;;-4.23;84.07
63493;BME280;49638;47.526;10.028;2023-01-29T02:36:08;92286.81;;;-4.24;83.55
63493;BME280;49638;47.526;10.028;2023-01-29T02:42:47;92268.84;;;-4.25;83.60
63493;BME280;49638;47.526;10.028;2023-01-29T02:46:00;92274.88;;;-4.35;82.89
63493;BME280;49638;47.526;10.028;2023-01-29T02:52:44;92296.00;;;-4.21;83.25
63493;BME280;49638;47.526;10.028;2023-01-29T02:55:59;92284.88;;;-4.22;83.85
63493;BME280;49638;47.526;10.028;2023-01-29T02:59:27;92273.75;;;-4.22;84.74
63493;BME280;49638;47.526;10.028;2023-01-29T03:02:37;92275.22;;;-4.20;85.11
63493;BME280;49638;47.526;10.028;2023-01-29T03:06:01;92261.25;;;-4.17;85.14
63493;BME280;49638;47.526;10.028;2023-01-29T03:09:15;92268.22;;;-4.00;84.57
63493;BME280;49638;47.526;10.028;2023-01-29T03:12:25;92259.53;;;-3.99;84.30
63493;BME280;49638;47.526;10.028;2023-01-29T03:15:34;92269.16;;;-4.01;85.16
63493;BME280;49638;47.526;10.028;2023-01-29T03:18:43;92244.34;;;-4.12;84.65
63493;BME280;49638;47.526;10.028;2023-01-29T03:21:53;92252.47;;;-3.97;85.02
63493;BME280;49638;47.526;10.028;2023-01-29T03:24:58;92242.13;;;-3.97;84.69
63493;BME280;49638;47.526;10.028;2023-01-29T03:28:20;92236.97;;;-3.97;85.03
63493;BME280;49638;47.526;10.028;2023-01-29T03:31:40;92230.16;;;-3.98;85.37
63493;BME280;49638;47.526;10.028;2023-01-29T03:35:01;92245.66;;;-3.98;85.37
63493;BME280;49638;47.526;10.028;2023-01-29T03:38:04;92253.78;;;-3.93;85.06
63493;BME280;49638;47.526;10.028;2023-01-29T03:41:21;92251.56;;;-3.88;85.90
63493;BME280;49638;47.526;10.028;2023-01-29T03:44:29;92254.16;;;-3.88;84.46
63493;BME280;49638;47.526;10.028;2023-01-29T03:47:50;92256.75;;;-3.88;85.29
63493;BME280;49638;47.526;10.028;2023-01-29T03:51:00;92238.59;;;-3.96;84.28
63493;BME280;49638;47.526;10.028;2023-01-29T03:54:26;92251.44;;;-3.86;85.12
63493;BME280;49638;47.526;10.028;2023-01-29T03:57:34;92254.56;;;-3.83;84.77
63493;BME280;49638;47.526;10.028;2023-01-29T04:00:41;92253.75;;;-3.83;85.15
63493;BME280;49638;47.526;10.028;2023-01-29T04:03:57;92237.03;;;-3.89;85.94
63493;BME280;49638;47.526;10.028;2023-01-29T04:07:24;92245.84;;;-3.82;86.15
63493;BME280;49638;47.526;10.028;2023-01-29T04:10:26;92242.16;;;-3.79;85.77
63493;BME280;49638;47.526;10.028;2023-01-29T04:13:29;92227.81;;;-3.91;85.41
63493;BME280;49638;47.526;10.028;2023-01-29T04:16:37;92247.44;;;-3.81;85.97
63493;BME280;49638;47.526;10.028;2023-01-29T04:19:38;92231.88;;;-3.89;86.03
63493;BME280;49638;47.526;10.028;2023-01-29T04:22:39;92235.78;;;-3.85;86.22
63493;BME280;49638;47.526;10.028;2023-01-29T04:25:45;92235.22;;;-3.78;86.42
63493;BME280;49638;47.526;10.028;2023-01-29T04:28:52;92230.06;;;-3.78;86.04
63493;BME280;49638;47.526;10.028;2023-01-29T04:32:19;92221.94;;;-3.84;85.24
63493;BME280;49638;47.526;10.028;2023-01-29T04:35:28;92211.00;;;-3.95;84.96
63493;BME280;49638;47.526;10.028;2023-01-29T04:44:58;92208.25;;;-4.21;84.22
63493;BME280;49638;47.526;10.028;2023-01-29T04:48:18;92214.09;;;-4.19;85.33
63493;BME280;49638;47.526;10.028;2023-01-29T04:51:42;92216.44;;;-4.26;84.26
63493;BME280;49638;47.526;10.028;2023-01-29T04:54:53;92215.91;;;-4.30;84.47
63493;BME280;49638;47.526;10.028;2023-01-29T04:58:11;92218.41;;;-4.38;83.51
63493;BME280;49638;47.526;10.028;2023-01-29T05:01:16;92219.81;;;-4.53;83.51
63493;BME280;49638;47.526;10.028;2023-01-29T05:04:19;92227.28;;;-4.60;83.19
63493;BME280;49638;47.526;10.028;2023-01-29T05:07:21;92219.84;;;-4.72;83.33
63493;BME280;49638;47.526;10.028;2023-01-29T05:10:23;92234.53;;;-4.73;83.39
63493;BME280;49638;47.526;10.028;2023-01-29T05:13:25;92246.50;;;-4.82;81.97
63493;BME280;49638;47.526;10.028;2023-01-29T05:16:32;92240.28;;;-4.89;82.62
63493;BME280;49638;47.526;10.028;2023-01-29T05:19:41;92239.19;;;-4.96;83.00
63493;BME280;49638;47.526;10.028;2023-01-29T05:22:42;92241.47;;;-4.93;83.57
63493;BME280;49638;47.526;10.028;2023-01-29T05:25:43;92221.03;;;-5.14;82.40
63493;BME280;49638;47.526;10.028;2023-01-29T05:28:44;92232.03;;;-5.21;82.89
63493;BME280;49638;47.526;10.028;2023-01-29T05:31:44;92233.66;;;-5.20;83.00
63493;BME280;49638;47.526;10.028;2023-01-29T05:34:45;92255.06;;;-5.10;82.33
63493;BME280;49638;47.526;10.028;2023-01-29T05:37:45;92254.94;;;-5.18;82.66
63493;BME280;49638;47.526;10.028;2023-01-29T05:40:46;92243.56;;;-5.35;82.89
63493;BME280;49638;47.526;10.028;2023-01-29T05:43:47;92263.09;;;-5.33;82.60
63493;BME280;49638;47.526;10.028;2023-01-29T05:46:49;92265.25;;;-5.38;83.05
63493;BME280;49638;47.526;10.028;2023-01-29T05:49:49;92272.00;;;-5.37;83.44
63493;BME280;49638;47.526;10.028;2023-01-29T05:52:55;92284.75;;;-5.45;83.60
63493;BME280;49638;47.526;10.028;2023-01-29T05:55:55;92287.75;;;-5.59;84.13
63493;BME280;49638;47.526;10.028;2023-01-29T05:58:58;92314.69;;;-5.54;84.06
63493;BME280;49638;47.526;10.028;2023-01-29T06:01:59;92313.63;;;-5.51;85.02
63493;BME280;49638;47.526;10.028;2023-01-29T06:04:59;92316.88;;;-5.59;84.92
63493;BME280;49638;47.526;10.028;2023-01-29T06:07:59;92320.78;;;-5.64;84.01
63493;BME280;49638;47.526;10.028;2023-01-29T06:10:59;92320.13;;;-5.66;84.62
63493;BME280;49638;47.526;10.028;2023-01-29T06:14:00;92315.88;;;-5.67;84.69
63493;BME280;49638;47.526;10.028;2023-01-29T06:17:00;92328.00;;;-5.49;84.51
63493;BME280;49638;47.526;10.028;2023-01-29T06:20:00;92333.31;;;-5.50;83.11
63493;BME280;49638;47.526;10.028;2023-01-29T06:23:01;92337.63;;;-5.60;82.35
63493;BME280;49638;47.526;10.028;2023-01-29T06:26:03;92330.28;;;-5.65;83.90
63493;BME280;49638;47.526;10.028;2023-01-29T06:29:03;92315.09;;;-5.68;84.81
63493;BME280;49638;47.526;10.028;2023-01-29T06:32:04;92330.28;;;-5.65;84.34
63493;BME280;49638;47.526;10.028;2023-01-29T06:35:04;92333.28;;;-5.60;84.54
63493;BME280;49638;47.526;10.028;2023-01-29T06:38:05;92335.44;;;-5.55;84.11
63493;BME280;49638;47.526;10.028;2023-01-29T06:41:10;92334.22;;;-5.51;83.60
63493;BME280;49638;47.526;10.028;2023-01-29T06:44:10;92319.44;;;-5.59;83.67
63493;BME280;49638;47.526;10.028;2023-01-29T06:47:11;92331.66;;;-5.51;84.37
63493;BME280;49638;47.526;10.028;2023-01-29T06:50:11;92344.25;;;-5.48;84.34
63493;BME280;49638;47.526;10.028;2023-01-29T06:53:11;92334.50;;;-5.44;83.95
63493;BME280;49638;47.526;10.028;2023-01-29T06:56:12;92322.72;;;-5.47;83.39
63493;BME280;49638;47.526;10.028;2023-01-29T06:59:12;92317.72;;;-5.39;83.41
63493;BME280;49638;47.526;10.028;2023-01-29T07:02:13;92306.34;;;-5.36;81.89
63493;BME280;49638;47.526;10.028;2023-01-29T07:05:13;92323.81;;;-5.30;81.51
63493;BME280;49638;47.526;10.028;2023-01-29T07:08:13;92312.28;;;-5.45;81.25
63493;BME280;49638;47.526;10.028;2023-01-29T07:11:14;92309.44;;;-5.52;81.51
63493;BME280;49638;47.526;10.028;2023-01-29T07:14:14;92301.28;;;-5.57;81.98
63493;BME280;49638;47.526;10.028;2023-01-29T07:17:14;92319.31;;;-5.48;82.51
63493;BME280;49638;47.526;10.028;2023-01-29T07:20:15;92313.88;;;-5.54;82.36
63493;BME280;49638;47.526;10.028;2023-01-29T07:23:16;92290.69;;;-5.64;82.24
63493;BME280;49638;47.526;10.028;2023-01-29T07:26:17;92316.91;;;-5.49;82.17
63493;BME280;49638;47.526;10.028;2023-01-29T07:29:17;92309.28;;;-5.60;81.40
63493;BME280;49638;47.526;10.028;2023-01-29T07:32:17;92312.69;;;-5.60;82.24
63493;BME280;49638;47.526;10.028;2023-01-29T07:35:17;92310.91;;;-5.59;82.52
63493;BME280;49638;47.526;10.028;2023-01-29T07:38:18;92316.72;;;-5.57;82.85
63493;BME280;49638;47.526;10.028;2023-01-29T07:41:18;92309.56;;;-5.63;82.54
63493;BME280;49638;47.526;10.028;2023-01-29T07:44:19;92303.44;;;-5.62;82.69
63493;BME280;49638;47.526;10.028;2023-01-29T07:47:19;92305.22;;;-5.63;83.42
63493;BME280;49638;47.526;10.028;2023-01-29T07:50:23;92298.41;;;-5.74;84.32
63493;BME280;49638;47.526;10.028;2023-01-29T07:53:26;92319.16;;;-5.65;82.95
63493;BME280;49638;47.526;10.028;2023-01-29T07:56:27;92312.50;;;-5.68;81.94
63493;BME280;49638;47.526;10.028;2023-01-29T07:59:27;92298.94;;;-5.80;80.89
63493;BME280;49638;47.526;10.028;2023-01-29T08:02:27;92301.25;;;-5.77;82.96
63493;BME280;49638;47.526;10.028;2023-01-29T08:05:28;92298.16;;;-5.71;82.63
63493;BME280;49638;47.526;10.028;2023-01-29T08:08:28;92297.75;;;-5.66;81.79
63493;BME280;49638;47.526;10.028;2023-01-29T08:11:29;92285.41;;;-5.72;81.85
63493;BME280;49638;47.526;10.028;2023-01-29T08:14:29;92287.69;;;-5.79;81.96
63493;BME280;49638;47.526;10.028;2023-01-29T08:17:29;92299.78;;;-5.69;82.64
63493;BME280;49638;47.526;10.028;2023-01-29T08:20:29;92280.41;;;-5.74;82.37
63493;BME280;49638;47.526;10.028;2023-01-29T08:23:30;92287.44;;;-5.66;82.79
63493;BME280;49638;47.526;10.028;2023-01-29T08:26:30;92296.00;;;-5.65;82.26
63493;BME280;49638;47.526;10.028;2023-01-29T08:29:30;92289.63;;;-5.61;82.74
63493;BME280;49638;47.526;10.028;2023-01-29T08:32:31;92287.59;;;-5.58;82.43
63493;BME280;49638;47.526;10.028;2023-01-29T08:35:32;92288.28;;;-5.56;82.42
63493;BME280;49638;47.526;10.028;2023-01-29T08:38:32;92288.69;;;-5.60;82.84
63493;BME280;49638;47.526;10.028;2023-01-29T08:41:32;92306.44;;;-5.48;83.27
63493;BME280;49638;47.526;10.028;2023-01-29T08:44:33;92278.53;;;-5.52;83.80
63493;BME280;49638;47.526;10.028;2023-01-29T08:47:33;92305.78;;;-5.30;83.37
63493;BME280;49638;47.526;10.028;2023-01-29T08:50:34;92310.13;;;-5.21;83.37
63493;BME280;49638;47.526;10.028;2023-01-29T08:53:34;92301.44;;;-5.20;83.14
63493;BME280;49638;47.526;10.028;2023-01-29T08:56:35;92302.94;;;-5.17;83.58
63493;BME280;49638;47.526;10.028;2023-01-29T08:59:35;92302.56;;;-5.22;82.90
63493;BME280;49638;47.526;10.028;2023-01-29T09:02:36;92308.66;;;-5.04;83.53
63493;BME280;49638;47.526;10.028;2023-01-29T09:05:37;92317.06;;;-4.92;83.43
63493;BME280;49638;47.526;10.028;2023-01-29T09:08:38;92307.41;;;-5.00;82.67
63493;BME280;49638;47.526;10.028;2023-01-29T09:11:38;92335.78;;;-4.81;82.04
63493;BME280;49638;47.526;10.028;2023-01-29T09:14:39;92314.72;;;-4.86;81.89
63493;BME280;49638;47.526;10.028;2023-01-29T09:17:39;92296.56;;;-5.04;81.47
63493;BME280;49638;47.526;10.028;2023-01-29T09:20:40;92349.34;;;-4.79;80.66
63493;BME280;49638;47.526;10.028;2023-01-29T09:23:40;92353.97;;;-4.82;80.77
63493;BME280;49638;47.526;10.028;2023-01-29T09:26:40;92356.28;;;-4.89;80.62
63493;BME280;49638;47.526;10.028;2023-01-29T09:29:41;92358.56;;;-4.86;80.68
63493;BME280;49638;47.526;10.028;2023-01-29T09:32:41;92363.72;;;-4.86;81.15
63493;BME280;49638;47.526;10.028;2023-01-29T09:35:42;92364.81;;;-4.88;80.70
63493;BME280;49638;47.526;10.028;2023-01-29T09:38:44;92362.34;;;-5.00;81.37
63493;BME280;49638;47.526;10.028;2023-01-29T09:45:13;92364.53;;;-4.76;81.56
63493;BME280;49638;47.526;10.028;2023-01-29T09:48:15;92351.78;;;-4.77;81.31
63493;BME280;49638;47.526;10.028;2023-01-29T09:51:27;92346.78;;;-4.79;80.47
63493;BME280;49638;47.526;10.028;2023-01-29T09:54:33;92361.94;;;-4.66;79.57
63493;BME280;49638;47.526;10.028;2023-01-29T09:57:49;92366.03;;;-4.63;80.32
63493;BME280;49638;47.526;10.028;2023-01-29T10:04:25;92368.06;;;-4.47;80.58
63493;BME280;49638;47.526;10.028;2023-01-29T10:07:52;92369.94;;;-4.40;79.87
63493;BME280;49638;47.526;10.028;2023-01-29T10:24:11;92385.03;;;-3.88;79.31
63493;BME280;49638;47.526;10.028;2023-01-29T10:27:17;92392.66;;;-3.87;79.60
63493;BME280;49638;47.526;10.028;2023-01-29T10:30:39;92380.69;;;-3.88;78.22
63493;BME280;49638;47.526;10.028;2023-01-29T10:33:45;92371.47;;;-3.90;79.78
63493;BME280;49638;47.526;10.028;2023-01-29T10:36:48;92363.28;;;-3.86;80.13
63493;BME280;49638;47.526;10.028;2023-01-29T10:39:49;92370.84;;;-3.74;80.39
63493;BME280;49638;47.526;10.028;2023-01-29T10:43:05;92363.50;;;-3.69;79.74
63493;BME280;49638;47.526;10.028;2023-01-29T10:46:23;92362.88;;;-3.53;78.62
63493;BME280;49638;47.526;10.028;2023-01-29T10:56:19;92349.53;;;-3.21;79.20
63493;BME280;49638;47.526;10.028;2023-01-29T11:02:46;92357.69;;;-2.98;80.12
63493;BME280;49638;47.526;10.028;2023-01-29T11:06:11;92357.28;;;-2.86;77.61
63493;BME280;49638;47.526;10.028;2023-01-29T11:12:29;92348.00;;;-2.78;78.54
63493;BME280;49638;47.526;10.028;2023-01-29T11:15:32;92346.59;;;-2.73;78.52
63493;BME280;49638;47.526;10.028;2023-01-29T11:18:51;92341.94;;;-2.69;76.81
63493;BME280;49638;47.526;10.028;2023-01-29T11:21:56;92316.34;;;-2.72;77.72
63493;BME280;49638;47.526;10.028;2023-01-29T11:25:17;92314.66;;;-2.64;76.39
63493;BME280;49638;47.526;10.028;2023-01-29T11:28:36;92320.91;;;-2.48;76.95
63493;BME280;49638;47.526;10.028;2023-01-29T11:31:37;92304.44;;;-2.47;78.75
63493;BME280;49638;47.526;10.028;2023-01-29T11:34:58;92315.22;;;-2.34;76.86
63493;BME280;49638;47.526;10.028;2023-01-29T11:38:25;92315.41;;;-2.27;76.77
63493;BME280;49638;47.526;10.028;2023-01-29T11:41:25;92304.56;;;-2.31;78.41
63493;BME280;49638;47.526;10.028;2023-01-29T11:47:29;92297.06;;;-2.08;78.44
63493;BME280;49638;47.526;10.028;2023-01-29T11:50:31;92294.16;;;-2.05;78.10
63493;BME280;49638;47.526;10.028;2023-01-29T11:53:35;92294.88;;;-1.95;78.24
63493;BME280;49638;47.526;10.028;2023-01-29T11:56:41;92282.09;;;-1.96;77.35
63493;BME280;49638;47.526;10.028;2023-01-29T11:59:45;92281.59;;;-1.92;77.35
63493;BME280;49638;47.526;10.028;2023-01-29T12:02:54;92294.94;;;-1.78;76.59
63493;BME280;49638;47.526;10.028;2023-01-29T12:05:58;92290.94;;;-1.73;77.77
63493;BME280;49638;47.526;10.028;2023-01-29T12:09:01;92288.03;;;-1.70;77.79
63493;BME280;49638;47.526;10.028;2023-01-29T12:12:36;92256.41;;;-1.81;74.76
63493;BME280;49638;47.526;10.028;2023-01-29T12:15:41;92273.00;;;-1.66;76.51
63493;BME280;49638;47.526;10.028;2023-01-29T12:18:47;92275.22;;;-1.71;76.01
63493;BME280;49638;47.526;10.028;2023-01-29T12:21:56;92262.44;;;-1.73;75.52
63493;BME280;49638;47.526;10.028;2023-01-29T12:25:06;92233.69;;;-1.87;75.47
63493;BME280;49638;47.526;10.028;2023-01-29T12:31:34;92236.41;;;-1.63;76.29
63493;BME280;49638;47.526;10.028;2023-01-29T12:34:55;92230.38;;;-1.63;74.43
63493;BME280;49638;47.526;10.028;2023-01-29T12:38:22;92224.25;;;-1.54;75.01
63493;BME280;49638;47.526;10.028;2023-01-29T12:41:29;92227.88;;;-1.39;76.09
63493;BME280;49638;47.526;10.028;2023-01-29T12:44:39;92233.72;;;-1.29;75.29
63493;BME280;49638;47.526;10.028;2023-01-29T12:47:56;92237.59;;;-1.25;75.02
63493;BME280;49638;47.526;10.028;2023-01-29T12:51:05;92218.78;;;-1.27;75.67
63493;BME280;49638;47.526;10.028;2023-01-29T12:54:13;92228.88;;;-1.15;75.50
63493;BME280;49638;47.526;10.028;2023-01-29T13:00:56;92251.44;;;-0.91;76.47
63493;BME280;49638;47.526;10.028;2023-01-29T13:04:10;92265.69;;;-0.79;75.37
63493;BME280;49638;47.526;10.028;2023-01-29T13:07:25;92264.72;;;-0.70;72.79
63493;BME280;49638;47.526;10.028;2023-01-29T13:10:51;92247.72;;;-0.81;74.20
63493;BME280;49638;47.526;10.028;2023-01-29T13:13:55;92249.66;;;-0.75;74.76
63493;BME280;49638;47.526;10.028;2023-01-29T13:17:07;92242.50;;;-0.81;72.68
63493;BME280;49638;47.526;10.028;2023-01-29T13:20:17;92235.38;;;-0.87;73.52
63493;BME280;49638;47.526;10.028;2023-01-29T13:23:22;92233.59;;;-0.86;76.01
63493;BME280;49638;47.526;10.028;2023-01-29T13:26:24;92213.47;;;-0.92;76.33
63493;BME280;49638;47.526;10.028;2023-01-29T13:29:28;92218.19;;;-0.88;76.02
63493;BME280;49638;47.526;10.028;2023-01-29T13:32:31;92224.81;;;-0.85;76.12
63493;BME280;49638;47.526;10.028;2023-01-29T13:35:31;92226.47;;;-0.84;76.27
63493;BME280;49638;47.526;10.028;2023-01-29T13:38:32;92224.19;;;-0.87;76.19
63493;BME280;49638;47.526;10.028;2023-01-29T13:41:38;92218.66;;;-0.92;75.86
63493;BME280;49638;47.526;10.028;2023-01-29T13:44:40;92219.47;;;-0.92;76.31
63493;BME280;49638;47.526;10.028;2023-01-29T13:47:45;92197.91;;;-1.01;75.23
63493;BME280;49638;47.526;10.028;2023-01-29T13:50:47;92197.25;;;-1.03;75.65
63493;BME280;49638;47.526;10.028;2023-01-29T13:53:56;92199.38;;;-0.98;73.95
63493;BME280;49638;47.526;10.028;2023-01-29T13:57:00;92193.53;;;-1.00;75.68
63493;BME280;49638;47.526;10.028;2023-01-29T14:00:00;92199.84;;;-1.03;76.00
63493;BME280;49638;47.526;10.028;2023-01-29T14:06:03;92202.44;;;-1.03;75.91
63493;BME280;49638;47.526;10.028;2023-01-29T14:12:38;92194.03;;;-1.05;76.24
63493;BME280;49638;47.526;10.028;2023-01-29T14:15:39;92188.84;;;-1.05;76.02
63493;BME280;49638;47.526;10.028;2023-01-29T14:18:47;92183.66;;;-1.05;74.60
63493;BME280;49638;47.526;10.028;2023-01-29T14:21:49;92177.31;;;-1.02;75.81
63493;BME280;49638;47.526;10.028;2023-01-29T14:24:54;92173.91;;;-1.03;75.01
63493;BME280;49638;47.526;10.028;2023-01-29T14:27:56;92181.06;;;-1.05;75.76
63493;BME280;49638;47.526;10.028;2023-01-29T14:30:58;92175.53;;;-1.10;76.08
63493;BME280;49638;47.526;10.028;2023-01-29T14:34:01;92164.34;;;-1.18;75.34
63493;BME280;49638;47.526;10.028;2023-01-29T14:37:20;92172.31;;;-1.12;74.36
63493;BME280;49638;47.526;10.028;2023-01-29T14:40:25;92164.19;;;-1.17;76.05
63493;BME280;49638;47.526;10.028;2023-01-29T14:43:27;92170.84;;;-1.14;76.33
63493;BME280;49638;47.526;10.028;2023-01-29T14:46:40;92163.88;;;-1.14;75.22
63493;BME280;49638;47.526;10.028;2023-01-29T14:49:48;92175.84;;;-1.13;75.07
63493;BME280;49638;47.526;10.028;2023-01-29T14:52:50;92158.34;;;-1.19;76.29
63493;BME280;49638;47.526;10.028;2023-01-29T14:56:09;92168.38;;;-1.16;75.70
63493;BME280;49638;47.526;10.028;2023-01-29T14:59:43;92162.91;;;-1.21;76.21
63493;BME280;49638;47.526;10.028;2023-01-29T15:02:40;92154.44;;;-1.23;76.77
63493;BME280;49638;47.526;10.028;2023-01-29T15:05:42;92167.91;;;-1.28;77.14
63493;BME280;49638;47.526;10.028;2023-01-29T15:09:09;92167.44;;;-1.31;76.05
63493;BME280;49638;47.526;10.028;2023-01-29T15:12:24;92163.53;;;-1.35;76.36
63493;BME280;49638;47.526;10.028;2023-01-29T15:15:37;92165.31;;;-1.44;76.10
63493;BME280;49638;47.526;10.028;2023-01-29T15:18:41;92164.81;;;-1.48;77.47
63493;BME280;49638;47.526;10.028;2023-01-29T15:22:01;92155.44;;;-1.49;76.59
63493;BME280;49638;47.526;10.028;2023-01-29T15:25:09;92157.84;;;-1.47;77.45
63493;BME280;49638;47.526;10.028;2023-01-29T15:28:12;92153.28;;;-1.53;77.39
63493;BME280;49638;47.526;10.028;2023-01-29T15:31:15;92158.66;;;-1.55;77.25
63493;BME280;49638;47.526;10.028;2023-01-29T15:34:17;92162.53;;;-1.59;77.66
63493;BME280;49638;47.526;10.028;2023-01-29T15:37:29;92162.19;;;-1.64;77.26
63493;BME280;49638;47.526;10.028;2023-01-29T15:40:29;92159.59;;;-1.72;77.65
63493;BME280;49638;47.526;10.028;2023-01-29T15:43:33;92167.00;;;-1.85;78.14
63493;BME280;49638;47.526;10.028;2023-01-29T15:46:34;92170.72;;;-1.96;76.68
63493;BME280;49638;47.526;10.028;2023-01-29T15:49:38;92181.53;;;-2.01;78.94
63493;BME280;49638;47.526;10.028;2023-01-29T15:52:39;92175.84;;;-2.04;78.96
63493;BME280;49638;47.526;10.028;2023-01-29T15:55:39;92175.66;;;-2.11;79.13
63493;BME280;49638;47.526;10.028;2023-01-29T15:58:40;92193.16;;;-2.13;79.19
63493;BME280;49638;47.526;10.028;2023-01-29T16:01:41;92190.38;;;-2.20;79.22
63493;BME280;49638;47.526;10.028;2023-01-29T16:04:42;92200.56;;;-2.18;79.20
63493;BME280;49638;47.526;10.028;2023-01-29T16:07:42;92201.84;;;-2.22;79.22
63493;BME280;49638;47.526;10.028;2023-01-29T16:10:44;92215.38;;;-2.28;79.62
63493;BME280;49638;47.526;10.028;2023-01-29T16:13:47;92229.09;;;-2.36;79.45
63493;BME280;49638;47.526;10.028;2023-01-29T16:16:48;92233.09;;;-2.42;79.87
63493;BME280;49638;47.526;10.028;2023-01-29T16:19:59;92227.84;;;-2.58;79.51
63493;BME280;49638;47.526;10.028;2023-01-29T16:23:00;92224.22;;;-2.65;80.13
63493;BME280;49638;47.526;10.028;2023-01-29T16:26:04;92225.50;;;-2.69;80.51
63493;BME280;49638;47.526;10.028;2023-01-29T16:29:09;92250.09;;;-2.65;80.12
63493;BME280;49638;47.526;10.028;2023-01-29T16:32:10;92252.19;;;-2.69;80.34
63493;BME280;49638;47.526;10.028;2023-01-29T16:35:15;92253.97;;;-2.69;80.20
63493;BME280;49638;47.526;10.028;2023-01-29T16:38:29;92257.16;;;-2.75;79.44
63493;BME280;49638;47.526;10.028;2023-01-29T16:41:32;92265.66;;;-2.83;79.88
63493;BME280;49638;47.526;10.028;2023-01-29T16:44:36;92272.25;;;-2.89;79.94
63493;BME280;49638;47.526;10.028;2023-01-29T16:47:39;92260.81;;;-3.04;80.03
63493;BME280;49638;47.526;10.028;2023-01-29T16:50:40;92256.53;;;-3.13;79.61
63493;BME280;49638;47.526;10.028;2023-01-29T16:53:58;92271.16;;;-3.22;79.71
63493;BME280;49638;47.526;10.028;2023-01-29T16:56:59;92282.44;;;-3.23;79.60
63493;BME280;49638;47.526;10.028;2023-01-29T17:00:24;92296.03;;;-3.39;79.50
63493;BME280;49638;47.526;10.028;2023-01-29T17:03:26;92300.72;;;-3.52;80.21
63493;BME280;49638;47.526;10.028;2023-01-29T17:06:30;92302.00;;;-3.56;80.19
63493;BME280;49638;47.526;10.028;2023-01-29T17:09:33;92304.06;;;-3.60;80.94
63493;BME280;49638;47.526;10.028;2023-01-29T17:12:34;92286.09;;;-3.61;81.41
63493;BME280;49638;47.526;10.028;2023-01-29T17:18:43;92285.84;;;-3.68;80.64
63493;BME280;49638;47.526;10.028;2023-01-29T17:21:45;92279.53;;;-3.73;80.33
63493;BME280;49638;47.526;10.028;2023-01-29T17:24:45;92285.09;;;-3.78;81.20
63493;BME280;49638;47.526;10.028;2023-01-29T17:27:45;92281.34;;;-3.84;81.32